createdAt,value
2018-03-22T00:02:03.828Z,4.43
2018-03-22T00:04:30.510Z,3.67
2018-03-22T00:06:57.198Z,3.97
2018-03-22T00:09:23.914Z,4.13
2018-03-22T00:11:50.588Z,3.90
2018-03-22T00:14:17.260Z,3.90
2018-03-22T00:16:43.969Z,4.93
2018-03-22T00:19:10.671Z,4.97
2018-03-22T00:21:37.386Z,5.87
2018-03-22T00:24:04.113Z,5.17
2018-03-22T00:26:30.784Z,4.00
2018-03-22T00:28:57.478Z,4.47
2018-03-22T00:31:24.191Z,4.13
2018-03-22T00:33:51.894Z,4.20
2018-03-22T00:36:18.564Z,5.23
2018-03-22T00:38:45.276Z,3.60
2018-03-22T00:41:12.074Z,4.37
2018-03-22T00:43:38.743Z,4.07
2018-03-22T00:46:05.483Z,3.93
2018-03-22T00:48:32.181Z,3.83
2018-03-22T00:50:58.861Z,6.10
2018-03-22T00:53:25.565Z,5.40
2018-03-22T00:55:52.425Z,4.33
2018-03-22T00:58:19.101Z,4.90
2018-03-22T01:00:45.812Z,4.90
2018-03-22T01:03:12.493Z,4.23
2018-03-22T01:05:39.291Z,3.80
2018-03-22T01:08:05.994Z,3.97
2018-03-22T01:10:32.669Z,3.23
2018-03-22T01:12:59.349Z,6.97
2018-03-22T01:15:26.057Z,3.70
2018-03-22T01:17:52.836Z,3.40
2018-03-22T01:20:19.525Z,4.00
2018-03-22T01:22:46.257Z,4.50
2018-03-22T01:25:12.929Z,4.13
2018-03-22T01:27:39.609Z,5.10
2018-03-22T01:30:12.229Z,3.50
2018-03-22T01:32:38.905Z,3.90
2018-03-22T01:35:05.593Z,4.70
2018-03-22T01:37:32.292Z,3.90
2018-03-22T01:39:58.962Z,4.27
2018-03-22T01:42:25.639Z,4.20
2018-03-22T01:44:52.344Z,5.23
2018-03-22T01:47:19.016Z,4.33
2018-03-22T01:49:45.721Z,4.30
2018-03-22T01:52:12.428Z,6.90
2018-03-22T01:54:39.102Z,4.17
2018-03-22T01:57:05.789Z,5.10
2018-03-22T01:59:32.488Z,4.77
2018-03-22T02:01:59.163Z,3.73
2018-03-22T02:04:25.836Z,4.60
2018-03-22T02:06:52.557Z,4.03
2018-03-22T02:09:19.237Z,3.93
2018-03-22T02:11:45.930Z,3.63
2018-03-22T02:14:12.632Z,5.03
2018-03-22T02:16:39.316Z,4.33
2018-03-22T02:19:05.994Z,3.57
2018-03-22T02:21:32.713Z,5.77
2018-03-22T02:24:00.388Z,4.63
2018-03-22T02:26:27.080Z,4.37
2018-03-22T02:28:53.900Z,3.83
2018-03-22T02:31:20.636Z,4.17
2018-03-22T02:33:47.318Z,5.07
2018-03-22T02:36:14.028Z,6.37
2018-03-22T02:38:40.712Z,3.63
2018-03-22T02:41:07.385Z,4.50
2018-03-22T02:43:34.325Z,3.73
2018-03-22T02:46:01.005Z,4.50
2018-03-22T02:48:27.681Z,4.50
2018-03-22T02:50:54.394Z,3.60
2018-03-22T02:53:21.123Z,4.03
2018-03-22T02:55:47.798Z,4.43
2018-03-22T02:58:14.526Z,4.23
2018-03-22T03:00:41.196Z,3.40
2018-03-22T03:03:07.872Z,4.07
2018-03-22T03:05:34.572Z,4.83
2018-03-22T03:08:01.285Z,3.93
2018-03-22T03:10:27.972Z,4.10
2018-03-22T03:12:54.760Z,4.33
2018-03-22T03:15:21.438Z,3.50
2018-03-22T03:17:48.118Z,6.43
2018-03-22T03:20:14.825Z,4.20
2018-03-22T03:22:41.508Z,3.83
2018-03-22T03:25:08.176Z,4.03
2018-03-22T03:27:34.884Z,4.00
2018-03-22T03:30:01.568Z,4.00
2018-03-22T03:32:28.240Z,3.53
2018-03-22T03:34:54.965Z,3.90
2018-03-22T03:37:21.640Z,4.10
2018-03-22T03:39:48.316Z,3.40
2018-03-22T03:42:15.016Z,4.30
2018-03-22T03:44:41.694Z,4.37
2018-03-22T03:47:08.364Z,5.13
2018-03-22T03:49:35.096Z,4.17
2018-03-22T03:52:01.797Z,3.73
2018-03-22T03:54:28.472Z,4.13
2018-03-22T03:56:55.172Z,3.20
2018-03-22T03:59:21.850Z,3.83
2018-03-22T04:01:48.524Z,3.87
2018-03-22T04:04:15.259Z,4.17
2018-03-22T04:06:41.952Z,3.90
2018-03-22T04:09:08.636Z,4.57
2018-03-22T04:11:35.344Z,4.87
2018-03-22T04:14:02.016Z,3.67
2018-03-22T04:16:28.686Z,4.60
2018-03-22T04:18:55.393Z,4.83
2018-03-22T04:21:22.126Z,6.60
2018-03-22T04:23:48.797Z,4.43
2018-03-22T04:26:15.592Z,5.27
2018-03-22T04:28:42.271Z,4.27
2018-03-22T04:31:08.948Z,4.53
2018-03-22T04:33:35.649Z,3.67
2018-03-22T04:36:02.359Z,4.37
2018-03-22T04:38:29.065Z,4.00
2018-03-22T04:40:55.813Z,4.27
2018-03-22T04:43:22.484Z,4.00
2018-03-22T04:45:50.159Z,4.10
2018-03-22T04:48:16.923Z,3.90
2018-03-22T04:50:43.622Z,11.07
2018-03-22T04:53:10.297Z,3.77
2018-03-22T04:55:36.996Z,3.60
2018-03-22T04:58:03.667Z,4.80
2018-03-22T05:00:30.341Z,4.17
2018-03-22T05:02:57.049Z,3.73
2018-03-22T05:05:23.721Z,4.90
2018-03-22T05:07:50.392Z,4.30
2018-03-22T05:10:17.088Z,5.93
2018-03-22T05:12:43.764Z,3.90
2018-03-22T05:15:10.444Z,4.00
2018-03-22T05:17:37.148Z,4.43
2018-03-22T05:20:03.829Z,3.87
2018-03-22T05:22:30.519Z,3.40
2018-03-22T05:24:57.219Z,3.90
2018-03-22T05:27:23.892Z,5.80
2018-03-22T05:29:50.573Z,3.50
2018-03-22T05:32:17.640Z,4.37
2018-03-22T05:34:44.315Z,4.20
2018-03-22T05:37:10.991Z,3.90
2018-03-22T05:39:37.744Z,3.80
2018-03-22T05:42:04.427Z,3.40
2018-03-22T05:44:31.107Z,3.97
2018-03-22T05:46:57.849Z,4.43
2018-03-22T05:49:24.525Z,4.00
2018-03-22T05:51:51.241Z,4.20
2018-03-22T05:54:17.957Z,4.03
2018-03-22T05:56:44.635Z,3.50
2018-03-22T05:59:11.322Z,3.83
2018-03-22T06:01:38.110Z,4.00
2018-03-22T06:04:04.784Z,4.77
2018-03-22T06:06:31.483Z,4.43
2018-03-22T06:08:58.197Z,4.70
2018-03-22T06:11:24.872Z,3.90
2018-03-22T06:13:51.557Z,4.90
2018-03-22T06:16:18.273Z,3.93
2018-03-22T06:18:44.961Z,5.40
2018-03-22T06:21:11.633Z,4.27
2018-03-22T06:23:38.348Z,4.30
2018-03-22T06:26:05.034Z,5.00
2018-03-22T06:28:31.735Z,5.27
2018-03-22T06:30:58.471Z,3.70
2018-03-22T06:33:25.140Z,4.10
2018-03-22T06:35:51.886Z,4.40
2018-03-22T06:38:18.584Z,4.50
2018-03-22T06:40:45.264Z,4.23
2018-03-22T06:43:11.944Z,3.80
2018-03-22T06:45:38.676Z,3.77
2018-03-22T06:48:05.369Z,3.57
2018-03-22T06:50:32.052Z,3.80
2018-03-22T06:52:58.765Z,3.53
2018-03-22T06:55:25.452Z,3.40
2018-03-22T06:57:52.138Z,4.07
2018-03-22T07:00:18.863Z,3.90
2018-03-22T07:02:45.541Z,3.67
2018-03-22T07:05:13.057Z,3.90
2018-03-22T07:07:39.784Z,3.27
2018-03-22T07:12:39.553Z,4.00
2018-03-22T07:15:06.236Z,14.33
2018-03-22T07:17:32.936Z,14.23
2018-03-22T07:19:59.652Z,13.43
2018-03-22T07:22:26.345Z,14.40
2018-03-22T07:24:53.028Z,17.40
2018-03-22T07:27:19.745Z,15.60
2018-03-22T07:29:46.428Z,16.13
2018-03-22T07:32:13.117Z,13.90
2018-03-22T07:34:39.833Z,13.13
2018-03-22T07:37:06.507Z,13.27
2018-03-22T07:39:33.184Z,11.40
2018-03-22T07:41:59.917Z,9.50
2018-03-22T07:44:32.260Z,13.63
2018-03-22T07:46:58.996Z,8.43
2018-03-22T07:49:25.712Z,9.30
2018-03-22T07:51:52.412Z,9.47
2018-03-22T07:54:19.113Z,7.93
2018-03-22T07:56:45.793Z,8.17
2018-03-22T07:59:12.485Z,9.87
2018-03-22T08:01:39.196Z,7.43
2018-03-22T08:04:06.257Z,8.67
2018-03-22T08:06:32.968Z,7.87
2018-03-22T08:08:59.831Z,10.27
2018-03-22T08:11:26.507Z,7.37
2018-03-22T08:13:53.365Z,9.73
2018-03-22T08:16:20.132Z,7.13
2018-03-22T08:18:46.821Z,11.40
2018-03-22T08:21:13.511Z,6.37
2018-03-22T08:23:40.223Z,6.43
2018-03-22T08:26:06.927Z,6.43
2018-03-22T08:28:33.772Z,7.00
2018-03-22T08:31:00.516Z,8.47
2018-03-22T08:33:27.363Z,6.30
2018-03-22T08:35:54.069Z,7.70
2018-03-22T08:38:20.826Z,8.13
2018-03-22T08:40:47.632Z,5.70
2018-03-22T08:43:14.419Z,5.70
2018-03-22T08:45:41.380Z,7.43
2018-03-22T08:48:08.128Z,5.37
2018-03-22T08:50:34.830Z,6.50
2018-03-22T08:53:01.575Z,7.33
2018-03-22T08:55:28.450Z,7.23
2018-03-22T08:57:55.163Z,8.27
2018-03-22T09:00:21.949Z,5.97
2018-03-22T09:02:48.651Z,6.00
2018-03-22T09:05:15.393Z,6.00
2018-03-22T09:07:42.156Z,5.23
2018-03-22T09:10:08.859Z,6.23
2018-03-22T09:12:35.532Z,6.30
2018-03-22T09:15:02.244Z,5.83
2018-03-22T09:17:29.059Z,5.80
2018-03-22T09:19:55.735Z,7.40
2018-03-22T09:22:22.468Z,5.80
2018-03-22T09:24:49.162Z,5.73
2018-03-22T09:27:15.849Z,5.60
2018-03-22T09:29:42.564Z,6.03
2018-03-22T09:32:09.244Z,5.63
2018-03-22T09:34:35.926Z,5.70
2018-03-22T09:37:02.760Z,5.90
2018-03-22T09:39:29.467Z,5.50
2018-03-22T09:41:56.180Z,5.47
2018-03-22T09:44:22.906Z,6.73
2018-03-22T09:46:49.616Z,6.00
2018-03-22T09:49:16.329Z,6.30
2018-03-22T09:51:43.044Z,5.93
2018-03-22T09:54:09.721Z,6.83
2018-03-22T09:56:36.397Z,5.93
2018-03-22T09:59:03.116Z,5.70
2018-03-22T10:01:29.804Z,5.47
2018-03-22T10:03:56.486Z,5.23
2018-03-22T10:06:23.205Z,5.63
2018-03-22T10:08:49.888Z,5.10
2018-03-22T10:11:16.575Z,5.97
2018-03-22T10:13:43.271Z,5.37
2018-03-22T10:16:09.952Z,6.43
2018-03-22T10:18:36.627Z,5.23
2018-03-22T10:21:03.337Z,6.33
2018-03-22T10:23:30.022Z,4.90
2018-03-22T10:25:56.697Z,4.97
2018-03-22T10:28:23.400Z,6.30
2018-03-22T10:30:50.071Z,6.33
2018-03-22T10:33:16.749Z,4.70
2018-03-22T10:35:43.469Z,4.67
2018-03-22T10:38:10.142Z,5.30
2018-03-22T10:40:36.825Z,4.73
2018-03-22T10:43:03.533Z,4.77
2018-03-22T10:45:30.228Z,5.77
2018-03-22T10:47:56.904Z,6.00
2018-03-22T10:50:23.608Z,5.23
2018-03-22T10:52:50.279Z,5.43
2018-03-22T10:55:16.955Z,5.00
2018-03-22T10:57:43.659Z,6.03
2018-03-22T11:00:10.987Z,5.03
2018-03-22T11:02:43.285Z,4.70
2018-03-22T11:05:09.972Z,6.27
2018-03-22T11:07:36.665Z,5.27
2018-03-22T11:10:03.855Z,4.87
2018-03-22T11:12:30.581Z,5.03
2018-03-22T11:14:57.261Z,4.83
2018-03-22T11:17:23.985Z,5.43
2018-03-22T11:19:50.703Z,6.00
2018-03-22T11:22:17.395Z,5.77
2018-03-22T11:24:44.108Z,5.20
2018-03-22T11:27:10.789Z,5.33
2018-03-22T11:29:37.471Z,5.17
2018-03-22T11:32:04.217Z,5.27
2018-03-22T11:34:30.904Z,4.93
2018-03-22T11:36:57.597Z,4.50
2018-03-22T11:39:24.301Z,4.73
2018-03-22T11:41:50.976Z,5.00
2018-03-22T11:44:17.651Z,4.60
2018-03-22T11:46:44.360Z,5.00
2018-03-22T11:49:11.051Z,4.43
2018-03-22T11:51:37.739Z,4.50
2018-03-22T11:54:04.453Z,5.63
2018-03-22T11:56:31.147Z,5.20
2018-03-22T11:58:57.854Z,5.83
2018-03-22T12:01:24.567Z,4.80
2018-03-22T12:03:51.240Z,4.43
2018-03-22T12:06:17.921Z,5.27
2018-03-22T12:08:44.637Z,4.70
2018-03-22T12:11:11.321Z,5.40
2018-03-22T12:13:38.005Z,4.80
2018-03-22T12:16:04.712Z,5.13
2018-03-22T12:18:31.392Z,5.40
2018-03-22T12:20:58.079Z,4.60
2018-03-22T12:23:24.788Z,6.40
2018-03-22T12:25:51.467Z,4.77
2018-03-22T12:28:18.149Z,4.87
2018-03-22T12:30:44.885Z,7.77
2018-03-22T12:33:11.585Z,5.63
2018-03-22T12:35:38.292Z,4.63
2018-03-22T12:38:05.001Z,5.00
2018-03-22T12:40:31.688Z,4.20
2018-03-22T12:42:58.396Z,5.77
2018-03-22T12:45:25.104Z,5.43
2018-03-22T12:47:51.789Z,5.67
2018-03-22T12:50:18.480Z,4.40
2018-03-22T12:52:45.188Z,4.47
2018-03-22T12:55:11.868Z,4.30
2018-03-22T12:57:38.548Z,5.93
2018-03-22T13:00:05.272Z,4.27
2018-03-22T13:02:31.963Z,5.40
2018-03-22T13:04:58.675Z,4.93
2018-03-22T13:07:25.376Z,5.23
2018-03-22T13:09:52.099Z,5.20
2018-03-22T13:12:18.814Z,4.70
2018-03-22T13:14:45.538Z,4.53
2018-03-22T13:17:12.217Z,4.87
2018-03-22T13:19:38.900Z,4.87
2018-03-22T13:22:05.636Z,5.07
2018-03-22T13:24:32.329Z,4.57
2018-03-22T13:26:59.010Z,4.20
2018-03-22T13:29:25.724Z,5.60
2018-03-22T13:31:52.405Z,4.83
2018-03-22T13:34:19.110Z,4.40
2018-03-22T13:36:45.817Z,4.23
2018-03-22T13:39:12.495Z,4.60
2018-03-22T13:41:39.192Z,4.30
2018-03-22T13:44:05.906Z,4.53
2018-03-22T13:46:32.582Z,4.17
2018-03-22T13:48:59.275Z,4.50
2018-03-22T13:51:25.984Z,4.13
2018-03-22T13:53:52.658Z,5.17
2018-03-22T13:56:19.336Z,5.07
2018-03-22T13:58:46.045Z,4.50
2018-03-22T14:01:12.729Z,4.70
2018-03-22T14:03:39.485Z,4.50
2018-03-22T14:06:06.196Z,4.73
2018-03-22T14:08:32.872Z,6.70
2018-03-22T14:10:59.554Z,5.50
2018-03-22T14:13:26.260Z,4.87
2018-03-22T14:15:52.956Z,5.10
2018-03-22T14:18:19.746Z,5.93
2018-03-22T14:20:46.449Z,4.30
2018-03-22T14:23:13.168Z,4.47
2018-03-22T14:25:39.839Z,4.03
2018-03-22T14:28:06.552Z,4.40
2018-03-22T14:30:33.265Z,4.03
2018-03-22T14:32:59.970Z,4.20
2018-03-22T14:35:26.741Z,4.43
2018-03-22T14:37:53.427Z,4.87
2018-03-22T14:40:20.113Z,4.27
2018-03-22T14:42:46.823Z,4.27
2018-03-22T14:45:13.499Z,4.07
2018-03-22T14:47:40.171Z,5.13
2018-03-22T14:50:06.876Z,4.40
2018-03-22T14:52:33.558Z,4.30
2018-03-22T14:55:00.250Z,5.93
2018-03-22T14:57:26.964Z,4.83
2018-03-22T14:59:53.635Z,4.13
2018-03-22T15:02:20.325Z,4.17
2018-03-22T15:04:47.033Z,4.30
2018-03-22T15:07:13.712Z,4.20
2018-03-22T15:09:40.392Z,4.10
2018-03-22T15:12:07.129Z,7.03
2018-03-22T15:14:33.804Z,4.30
2018-03-22T15:17:00.496Z,5.10
2018-03-22T15:19:27.204Z,3.83
2018-03-22T15:21:53.884Z,4.27
2018-03-22T15:24:20.568Z,5.50
2018-03-22T15:26:47.290Z,4.13
2018-03-22T15:29:13.981Z,4.70
2018-03-22T15:31:40.673Z,4.40
2018-03-22T15:34:07.377Z,3.97
2018-03-22T15:36:34.188Z,3.93
2018-03-22T15:39:00.875Z,4.00
2018-03-22T15:41:27.632Z,5.27
2018-03-22T15:43:54.325Z,3.87
2018-03-22T15:46:20.992Z,3.80
2018-03-22T15:48:47.702Z,4.05
2018-03-22T15:51:14.392Z,3.77
2018-03-22T15:53:41.081Z,5.30
2018-03-22T15:56:07.787Z,3.60
2018-03-22T15:58:34.596Z,4.13
2018-03-22T16:01:01.284Z,4.77
2018-03-22T16:03:28.085Z,3.87
2018-03-22T16:05:54.773Z,3.53
2018-03-22T16:08:21.469Z,3.50
2018-03-22T16:10:48.225Z,3.57
2018-03-22T16:13:14.916Z,4.43
2018-03-22T16:15:41.592Z,5.17
2018-03-22T16:18:08.324Z,4.17
2018-03-22T16:20:35.002Z,4.33
2018-03-22T16:23:01.690Z,4.00
2018-03-22T16:25:28.401Z,3.80
2018-03-22T16:27:55.089Z,3.67
2018-03-22T16:30:21.778Z,4.30
2018-03-22T16:32:48.504Z,4.40
2018-03-22T16:35:15.188Z,3.93
2018-03-22T16:37:41.880Z,3.50
2018-03-22T16:40:08.619Z,3.80
2018-03-22T16:42:35.360Z,3.83
2018-03-22T16:45:02.013Z,3.83
2018-03-22T16:47:28.734Z,4.40
2018-03-22T16:49:55.426Z,3.50
2018-03-22T16:52:22.111Z,5.40
2018-03-22T16:54:48.840Z,3.60
2018-03-22T16:57:15.557Z,3.47
2018-03-22T16:59:42.244Z,3.57
2018-03-22T17:02:08.952Z,3.67
2018-03-22T17:04:35.669Z,4.23
2018-03-22T17:07:02.354Z,3.97
2018-03-22T17:09:29.154Z,5.13
2018-03-22T17:11:55.837Z,5.67
2018-03-22T17:14:22.558Z,4.13
2018-03-22T17:16:49.368Z,4.47
2018-03-22T17:19:16.072Z,4.37
2018-03-22T17:21:42.757Z,3.30
2018-03-22T17:24:09.463Z,4.53
2018-03-22T17:26:36.145Z,4.23
2018-03-22T17:29:02.857Z,3.37
2018-03-22T17:31:29.564Z,3.40
2018-03-22T17:33:56.240Z,3.97
2018-03-22T17:36:22.929Z,5.37
2018-03-22T17:38:49.663Z,4.87
2018-03-22T17:41:16.344Z,5.83
2018-03-22T22:32:18.727Z,6.07
2018-03-22T22:34:46.231Z,6.93
2018-03-22T22:37:13.987Z,7.50
2018-03-22T22:39:41.503Z,6.67
2018-03-22T22:42:08.986Z,6.50
2018-03-22T22:44:36.519Z,6.63
2018-03-22T22:47:04.125Z,7.97
2018-03-22T22:49:31.607Z,6.73
2018-03-22T22:51:59.094Z,5.83
2018-03-22T22:54:26.597Z,7.03
2018-03-22T22:56:54.086Z,6.33
2018-03-22T22:59:21.566Z,6.73
2018-03-22T23:01:49.079Z,7.10
2018-03-22T23:04:16.558Z,8.20
2018-03-22T23:06:44.614Z,6.47
2018-03-22T23:09:12.131Z,6.87
2018-03-22T23:11:40.242Z,4.70
2018-03-22T23:14:07.854Z,5.93
2018-03-22T23:16:35.374Z,7.80
2018-03-22T23:19:02.870Z,5.67
2018-03-22T23:21:30.342Z,5.47
2018-03-22T23:23:57.849Z,7.47
2018-03-22T23:26:25.337Z,4.90
2018-03-22T23:28:52.814Z,6.20
2018-03-22T23:31:20.359Z,6.53
2018-03-22T23:33:48.864Z,4.90
2018-03-22T23:36:16.350Z,5.43
2018-03-22T23:38:43.860Z,6.30
2018-03-22T23:41:11.333Z,4.43
2018-03-22T23:43:38.805Z,6.73
2018-03-22T23:46:06.315Z,4.17
2018-03-22T23:48:33.793Z,6.60
2018-03-22T23:51:01.284Z,4.53
2018-03-22T23:53:28.785Z,6.60
2018-03-22T23:55:56.271Z,4.90
2018-03-22T23:58:23.747Z,4.40
